createdAt,value
2018-12-18T00:02:10.805Z,10.40
2018-12-18T00:04:40.213Z,10.40
2018-12-18T00:07:08.911Z,10.40
2018-12-18T00:09:37.592Z,10.40
2018-12-18T00:12:06.330Z,10.40
2018-12-18T00:14:34.966Z,10.40
2018-12-18T00:17:03.664Z,10.40
2018-12-18T00:19:32.457Z,10.40
2018-12-18T00:22:01.036Z,10.40
2018-12-18T00:24:29.951Z,10.40
2018-12-18T00:26:58.562Z,10.40
2018-12-18T00:29:27.326Z,10.40
2018-12-18T00:31:56.979Z,10.40
2018-12-18T00:34:25.689Z,10.40
2018-12-18T00:36:54.864Z,10.40
2018-12-18T00:39:24.687Z,10.40
2018-12-18T00:41:57.377Z,10.40
2018-12-18T00:44:26.055Z,10.40
2018-12-18T00:46:54.797Z,10.40
2018-12-18T00:49:24.242Z,10.40
2018-12-18T00:51:53.106Z,10.40
2018-12-18T00:54:21.776Z,10.40
2018-12-18T00:56:50.450Z,10.40
2018-12-18T00:59:19.152Z,10.40
2018-12-18T01:01:53.975Z,10.40
2018-12-18T01:04:22.726Z,10.40
2018-12-18T01:06:51.358Z,10.40
2018-12-18T01:09:20.950Z,10.40
2018-12-18T01:11:49.678Z,10.40
2018-12-18T01:14:21.802Z,10.40
2018-12-18T01:16:50.565Z,10.40
2018-12-18T01:19:19.266Z,10.40
2018-12-18T01:21:47.948Z,10.40
2018-12-18T01:24:17.370Z,10.40
2018-12-18T01:26:51.456Z,10.40
2018-12-18T01:29:20.189Z,10.40
2018-12-18T01:31:49.241Z,10.40
2018-12-18T01:34:17.945Z,10.40
2018-12-18T01:36:46.577Z,10.40
2018-12-18T01:39:15.989Z,10.40
2018-12-18T01:41:45.149Z,10.40
2018-12-18T01:44:14.423Z,10.40
2018-12-18T01:46:43.194Z,10.40
2018-12-18T01:49:11.898Z,10.40
2018-12-18T01:51:40.533Z,10.40
2018-12-18T01:54:09.431Z,10.40
2018-12-18T01:56:38.131Z,10.40
2018-12-18T01:59:07.329Z,10.40
2018-12-18T02:01:36.783Z,10.40
2018-12-18T02:04:06.098Z,10.40
2018-12-18T02:06:36.226Z,10.40
2018-12-18T02:09:06.957Z,10.40
2018-12-18T02:11:35.540Z,10.40
2018-12-18T02:14:04.400Z,10.40
2018-12-18T02:16:34.486Z,10.40
2018-12-18T02:19:04.008Z,10.40
2018-12-18T02:21:33.447Z,10.40
2018-12-18T02:24:02.089Z,10.40
2018-12-18T02:26:31.409Z,10.40
2018-12-18T02:29:03.566Z,10.40
2018-12-18T02:31:32.133Z,10.40
2018-12-18T02:34:00.949Z,10.40
2018-12-18T02:36:29.732Z,10.40
2018-12-18T02:39:04.984Z,10.40
2018-12-18T02:41:35.683Z,10.40
2018-12-18T02:44:04.331Z,10.40
2018-12-18T02:46:32.933Z,10.40
2018-12-18T02:49:02.612Z,10.40
2018-12-18T02:51:31.324Z,10.40
2018-12-18T02:54:00.042Z,10.40
2018-12-18T02:56:28.696Z,10.40
2018-12-18T02:58:57.396Z,10.40
2018-12-18T03:01:26.074Z,10.40
2018-12-18T03:03:56.633Z,10.40
2018-12-18T03:06:26.308Z,10.40
2018-12-18T03:08:55.012Z,10.40
2018-12-18T03:11:23.718Z,10.40
2018-12-18T03:13:53.081Z,10.40
2018-12-18T03:16:28.090Z,10.40
2018-12-18T03:18:58.151Z,10.40
2018-12-18T03:21:26.916Z,10.40
2018-12-18T03:23:55.532Z,10.40
2018-12-18T03:26:24.201Z,10.40
2018-12-18T03:28:53.371Z,10.40
2018-12-18T03:31:22.279Z,10.40
2018-12-18T03:33:50.840Z,10.40
2018-12-18T03:36:19.695Z,10.40
2018-12-18T03:38:50.307Z,10.40
2018-12-18T03:41:19.038Z,10.40
2018-12-18T03:43:48.315Z,10.40
2018-12-18T03:46:16.964Z,10.40
2018-12-18T03:48:45.667Z,10.40
2018-12-18T03:51:14.343Z,10.40
2018-12-18T03:53:43.008Z,10.40
2018-12-18T03:56:13.082Z,10.40
2018-12-18T03:58:46.239Z,10.40
2018-12-18T04:01:15.928Z,10.40
2018-12-18T04:03:45.386Z,10.40
2018-12-18T04:06:14.134Z,10.40
2018-12-18T04:08:42.940Z,10.40
2018-12-18T04:11:11.649Z,10.40
2018-12-18T04:13:41.072Z,10.40
2018-12-18T04:16:09.774Z,10.40
2018-12-18T04:18:38.453Z,10.40
2018-12-18T04:21:07.192Z,10.40
2018-12-18T04:23:36.518Z,10.40
2018-12-18T04:26:05.207Z,10.40
2018-12-18T04:28:34.741Z,10.40
2018-12-18T04:31:03.353Z,10.40
2018-12-18T04:33:32.918Z,10.40
2018-12-18T04:36:02.389Z,10.40
2018-12-18T04:38:31.057Z,10.40
2018-12-18T04:41:00.222Z,10.40
2018-12-18T04:43:28.893Z,10.40
2018-12-18T04:45:57.508Z,10.40
2018-12-18T04:48:26.247Z,10.40
2018-12-18T04:50:54.888Z,10.40
2018-12-18T04:53:23.572Z,10.40
2018-12-18T04:55:52.300Z,10.40
2018-12-18T04:58:20.961Z,10.40
2018-12-18T05:00:49.637Z,10.40
2018-12-18T05:03:18.306Z,10.40
2018-12-18T05:05:47.000Z,10.40
2018-12-18T05:08:15.682Z,10.40
2018-12-18T05:10:44.410Z,10.40
2018-12-18T05:13:14.937Z,10.40
2018-12-18T05:15:43.770Z,10.40
2018-12-18T05:18:13.475Z,10.40
2018-12-18T05:20:42.225Z,10.40
2018-12-18T05:23:11.533Z,10.40
2018-12-18T05:25:40.155Z,10.40
2018-12-18T05:28:13.338Z,10.40
2018-12-18T05:30:42.008Z,10.40
2018-12-18T05:33:10.667Z,10.40
2018-12-18T05:35:39.552Z,10.40
2018-12-18T05:38:08.520Z,10.40
2018-12-18T05:40:37.192Z,10.40
2018-12-18T05:43:06.795Z,10.40
2018-12-18T05:45:44.938Z,10.40
2018-12-18T05:48:15.765Z,10.40
2018-12-18T05:50:44.693Z,10.40
2018-12-18T05:53:13.374Z,10.40
2018-12-18T05:55:41.963Z,10.40
2018-12-18T05:58:10.708Z,10.40
2018-12-18T06:00:39.382Z,10.40
2018-12-18T06:03:08.084Z,10.40
2018-12-18T06:05:36.782Z,10.40
2018-12-18T06:08:05.442Z,10.40
2018-12-18T06:10:34.761Z,10.40
2018-12-18T06:13:03.415Z,10.40
2018-12-18T06:15:32.248Z,10.40
2018-12-18T06:18:01.070Z,10.40
2018-12-18T06:20:30.321Z,10.40
2018-12-18T06:22:59.935Z,10.40
2018-12-18T06:25:34.253Z,10.40
2018-12-18T06:28:02.979Z,10.40
2018-12-18T06:30:33.589Z,10.40
2018-12-18T06:33:02.465Z,10.40
2018-12-18T06:35:34.834Z,10.40
2018-12-18T06:38:03.364Z,10.40
2018-12-18T06:40:32.076Z,10.40
2018-12-18T06:43:00.743Z,10.40
2018-12-18T06:45:30.037Z,10.40
2018-12-18T06:47:58.731Z,10.30
2018-12-18T06:50:28.160Z,10.40
2018-12-18T06:52:56.916Z,10.40
2018-12-18T06:55:25.788Z,10.40
2018-12-18T06:57:55.496Z,10.30
2018-12-18T07:00:24.246Z,10.40
2018-12-18T07:02:52.890Z,10.40
2018-12-18T07:05:21.580Z,10.40
2018-12-18T07:07:50.267Z,10.40
2018-12-18T07:10:19.099Z,10.40
2018-12-18T07:12:48.714Z,10.40
2018-12-18T07:15:27.194Z,10.40
2018-12-18T07:20:24.159Z,10.40
2018-12-18T07:22:53.500Z,10.50
2018-12-18T07:25:22.132Z,10.60
2018-12-18T07:27:51.769Z,10.70
2018-12-18T07:30:20.548Z,10.80
2018-12-18T07:32:49.355Z,11.00
2018-12-18T07:35:23.231Z,11.10
2018-12-18T07:37:49.591Z,11.30
2018-12-18T07:40:18.413Z,11.50
2018-12-18T07:42:46.934Z,11.70
2018-12-18T07:45:15.730Z,11.80
2018-12-18T07:47:44.384Z,11.90
2018-12-18T07:50:13.861Z,12.10
2018-12-18T07:52:43.645Z,12.10
2018-12-18T07:55:12.316Z,12.30
2018-12-18T07:57:41.886Z,12.40
2018-12-18T08:00:10.679Z,12.50
2018-12-18T08:02:39.347Z,12.50
2018-12-18T08:05:08.119Z,12.70
2018-12-18T08:07:36.792Z,12.80
2018-12-18T08:10:05.970Z,12.90
2018-12-18T08:12:34.758Z,12.90
2018-12-18T08:15:03.565Z,13.00
2018-12-18T08:17:33.755Z,13.00
2018-12-18T08:20:02.430Z,13.10
2018-12-18T08:22:31.165Z,13.20
2018-12-18T08:24:59.811Z,13.20
2018-12-18T08:27:29.109Z,13.30
2018-12-18T08:29:58.615Z,13.30
2018-12-18T08:32:27.366Z,13.30
2018-12-18T08:34:55.924Z,13.40
2018-12-18T08:37:25.754Z,13.50
2018-12-18T08:40:02.417Z,13.50
2018-12-18T08:42:30.964Z,13.60
2018-12-18T08:45:00.460Z,13.60
2018-12-18T08:47:33.775Z,13.60
2018-12-18T08:50:02.405Z,13.70
2018-12-18T08:52:31.162Z,13.70
2018-12-18T08:55:03.739Z,13.70
2018-12-18T08:57:32.319Z,13.70
2018-12-18T09:00:01.823Z,13.80
2018-12-18T09:02:31.680Z,13.80
2018-12-18T09:05:00.240Z,13.80
2018-12-18T09:07:29.934Z,13.90
2018-12-18T09:09:59.661Z,13.90
2018-12-18T09:12:28.445Z,13.90
2018-12-18T09:14:57.044Z,13.90
2018-12-18T09:17:34.920Z,13.90
2018-12-18T09:20:04.553Z,13.90
2018-12-18T09:22:33.170Z,13.90
2018-12-18T09:25:03.259Z,13.90
2018-12-18T09:27:34.529Z,13.90
2018-12-18T09:30:03.548Z,13.90
2018-12-18T09:32:32.934Z,13.80
2018-12-18T09:35:01.801Z,13.80
2018-12-18T09:37:30.388Z,13.80
2018-12-18T09:39:59.298Z,13.60
2018-12-18T16:41:17.196Z,13.80
2018-12-18T16:44:02.683Z,13.50
2018-12-18T16:46:31.568Z,13.20
2018-12-18T16:49:00.219Z,13.10
2018-12-18T16:51:28.897Z,13.10
2018-12-18T16:53:59.173Z,13.10
2018-12-18T16:56:27.996Z,13.00
2018-12-18T16:58:58.733Z,13.10
2018-12-18T17:01:27.512Z,13.10
2018-12-18T17:03:56.223Z,13.10
2018-12-18T17:06:24.932Z,13.00
2018-12-18T17:08:53.593Z,13.00
2018-12-18T17:11:22.268Z,13.10
2018-12-18T17:13:51.040Z,13.00
2018-12-18T17:16:19.605Z,13.00
2018-12-18T17:18:48.320Z,13.00
2018-12-18T17:21:17.700Z,13.00
2018-12-18T17:23:46.352Z,13.00
2018-12-18T17:26:15.893Z,13.00
2018-12-18T17:28:46.213Z,12.90
2018-12-18T17:33:43.949Z,13.00
2018-12-18T17:36:12.602Z,13.00
2018-12-18T17:38:42.110Z,12.90
2018-12-18T17:41:10.784Z,13.00
2018-12-18T17:43:40.357Z,13.00
2018-12-18T17:48:37.674Z,12.90
2018-12-18T17:51:06.383Z,12.90
2018-12-18T17:53:35.168Z,12.90
2018-12-18T17:56:03.941Z,13.00
2018-12-18T17:58:33.448Z,12.90
2018-12-18T18:01:02.196Z,12.90
